sensor_id;sensor_type;location;lat;lon;timestamp;temperature;humidity
3752;DHT22;50827;47.014;7.652;2023-02-24T00:02:02;6.70;99.90
3752;DHT22;50827;47.014;7.652;2023-02-24T00:04:36;6.60;99.90
3752;DHT22;50827;47.014;7.652;2023-02-24T00:07:04;6.60;99.90
3752;DHT22;50827;47.014;7.652;2023-02-24T00:09:31;6.70;99.90
3752;DHT22;50827;47.014;7.652;2023-02-24T00:12:01;6.70;99.90
3752;DHT22;50827;47.014;7.652;2023-02-24T00:14:31;6.70;99.90
3752;DHT22;50827;47.014;7.652;2023-02-24T00:16:58;6.80;99.90
3752;DHT22;50827;47.014;7.652;2023-02-24T00:19:28;6.80;99.90
3752;DHT22;50827;47.014;7.652;2023-02-24T00:21:59;6.80;99.90
3752;DHT22;50827;47.014;7.652;2023-02-24T00:24:26;6.80;99.90
3752;DHT22;50827;47.014;7.652;2023-02-24T00:26:58;6.80;99.90
3752;DHT22;50827;47.014;7.652;2023-02-24T00:29:26;6.80;99.90
3752;DHT22;50827;47.014;7.652;2023-02-24T00:31:56;6.80;99.90
3752;DHT22;50827;47.014;7.652;2023-02-24T00:34:31;6.80;99.90
3752;DHT22;50827;47.014;7.652;2023-02-24T00:36:59;6.80;99.90
3752;DHT22;50827;47.014;7.652;2023-02-24T00:39:27;6.80;99.90
3752;DHT22;50827;47.014;7.652;2023-02-24T00:41:59;6.70;99.90
3752;DHT22;50827;47.014;7.652;2023-02-24T00:44:37;6.60;99.90
3752;DHT22;50827;47.014;7.652;2023-02-24T00:47:06;6.50;99.90
3752;DHT22;50827;47.014;7.652;2023-02-24T00:49:36;6.50;99.90
3752;DHT22;50827;47.014;7.652;2023-02-24T00:52:16;6.40;99.90
3752;DHT22;50827;47.014;7.652;2023-02-24T00:54:44;6.40;99.90
3752;DHT22;50827;47.014;7.652;2023-02-24T00:57:13;6.40;99.90
3752;DHT22;50827;47.014;7.652;2023-02-24T00:59:40;6.30;99.90
3752;DHT22;50827;47.014;7.652;2023-02-24T01:02:06;6.20;99.90
3752;DHT22;50827;47.014;7.652;2023-02-24T01:04:34;6.10;99.90
3752;DHT22;50827;47.014;7.652;2023-02-24T01:07:03;6.10;99.90
3752;DHT22;50827;47.014;7.652;2023-02-24T01:09:37;6.10;99.90
3752;DHT22;50827;47.014;7.652;2023-02-24T01:12:07;6.10;99.90
3752;DHT22;50827;47.014;7.652;2023-02-24T01:14:52;6.10;99.90
3752;DHT22;50827;47.014;7.652;2023-02-24T01:17:20;6.10;99.90
3752;DHT22;50827;47.014;7.652;2023-02-24T01:19:47;6.10;99.90
3752;DHT22;50827;47.014;7.652;2023-02-24T01:22:16;6.10;99.90
3752;DHT22;50827;47.014;7.652;2023-02-24T01:24:44;6.10;99.90
3752;DHT22;50827;47.014;7.652;2023-02-24T01:27:13;6.10;99.90
3752;DHT22;50827;47.014;7.652;2023-02-24T01:29:40;6.10;99.90
3752;DHT22;50827;47.014;7.652;2023-02-24T01:32:11;6.10;99.90
3752;DHT22;50827;47.014;7.652;2023-02-24T01:34:39;6.10;99.90
3752;DHT22;50827;47.014;7.652;2023-02-24T01:37:08;6.00;99.90
3752;DHT22;50827;47.014;7.652;2023-02-24T01:39:35;6.10;99.90
3752;DHT22;50827;47.014;7.652;2023-02-24T01:42:03;6.10;99.90
3752;DHT22;50827;47.014;7.652;2023-02-24T01:46:59;5.90;99.90
3752;DHT22;50827;47.014;7.652;2023-02-24T01:49:39;5.90;99.90
3752;DHT22;50827;47.014;7.652;2023-02-24T01:54:39;6.00;99.90
3752;DHT22;50827;47.014;7.652;2023-02-24T01:57:09;5.90;99.90
3752;DHT22;50827;47.014;7.652;2023-02-24T01:59:43;5.90;99.90
3752;DHT22;50827;47.014;7.652;2023-02-24T02:02:11;5.90;99.90
3752;DHT22;50827;47.014;7.652;2023-02-24T02:04:45;5.90;99.90
3752;DHT22;50827;47.014;7.652;2023-02-24T02:07:15;5.90;99.90
3752;DHT22;50827;47.014;7.652;2023-02-24T02:09:43;5.80;99.90
3752;DHT22;50827;47.014;7.652;2023-02-24T02:12:11;5.70;99.90
3752;DHT22;50827;47.014;7.652;2023-02-24T02:14:46;5.70;99.90
3752;DHT22;50827;47.014;7.652;2023-02-24T02:25:59;5.60;99.90
3752;DHT22;50827;47.014;7.652;2023-02-24T02:28:41;5.60;99.90
3752;DHT22;50827;47.014;7.652;2023-02-24T02:31:47;5.60;99.90
3752;DHT22;50827;47.014;7.652;2023-02-24T02:37:03;5.70;99.90
3752;DHT22;50827;47.014;7.652;2023-02-24T02:40:03;5.70;99.90
3752;DHT22;50827;47.014;7.652;2023-02-24T02:43:11;5.70;99.90
3752;DHT22;50827;47.014;7.652;2023-02-24T02:45:55;5.70;99.90
3752;DHT22;50827;47.014;7.652;2023-02-24T02:48:33;5.60;99.90
3752;DHT22;50827;47.014;7.652;2023-02-24T02:51:08;5.60;99.90
3752;DHT22;50827;47.014;7.652;2023-02-24T02:53:57;5.70;99.90
3752;DHT22;50827;47.014;7.652;2023-02-24T02:56:46;5.70;99.90
3752;DHT22;50827;47.014;7.652;2023-02-24T02:59:15;5.70;99.90
3752;DHT22;50827;47.014;7.652;2023-02-24T03:01:50;5.70;99.90
3752;DHT22;50827;47.014;7.652;2023-02-24T03:04:22;5.70;99.90
3752;DHT22;50827;47.014;7.652;2023-02-24T03:07:00;5.70;99.90
3752;DHT22;50827;47.014;7.652;2023-02-24T03:09:30;5.70;99.90
3752;DHT22;50827;47.014;7.652;2023-02-24T03:12:04;5.70;99.90
3752;DHT22;50827;47.014;7.652;2023-02-24T03:14:37;5.70;99.90
3752;DHT22;50827;47.014;7.652;2023-02-24T03:17:11;5.70;99.90
3752;DHT22;50827;47.014;7.652;2023-02-24T03:19:42;5.60;99.90
3752;DHT22;50827;47.014;7.652;2023-02-24T03:22:18;5.60;99.90
3752;DHT22;50827;47.014;7.652;2023-02-24T03:24:47;5.60;99.90
3752;DHT22;50827;47.014;7.652;2023-02-24T03:27:29;5.60;99.90
3752;DHT22;50827;47.014;7.652;2023-02-24T03:30:06;5.60;99.90
3752;DHT22;50827;47.014;7.652;2023-02-24T03:32:40;5.50;99.90
3752;DHT22;50827;47.014;7.652;2023-02-24T03:35:20;5.50;99.90
3752;DHT22;50827;47.014;7.652;2023-02-24T03:37:47;5.50;99.90
3752;DHT22;50827;47.014;7.652;2023-02-24T03:40:16;5.50;99.90
3752;DHT22;50827;47.014;7.652;2023-02-24T03:42:46;5.50;99.90
3752;DHT22;50827;47.014;7.652;2023-02-24T03:45:15;5.50;99.90
3752;DHT22;50827;47.014;7.652;2023-02-24T03:47:42;5.60;99.90
3752;DHT22;50827;47.014;7.652;2023-02-24T03:50:17;5.60;99.90
3752;DHT22;50827;47.014;7.652;2023-02-24T04:01:47;5.70;99.90
3752;DHT22;50827;47.014;7.652;2023-02-24T04:04:37;5.70;99.90
3752;DHT22;50827;47.014;7.652;2023-02-24T04:07:14;5.70;99.90
3752;DHT22;50827;47.014;7.652;2023-02-24T04:12:46;5.70;99.90
3752;DHT22;50827;47.014;7.652;2023-02-24T04:15:42;5.80;99.90
3752;DHT22;50827;47.014;7.652;2023-02-24T04:18:22;5.70;99.90
3752;DHT22;50827;47.014;7.652;2023-02-24T04:20:50;5.70;99.90
3752;DHT22;50827;47.014;7.652;2023-02-24T04:23:25;5.70;99.90
3752;DHT22;50827;47.014;7.652;2023-02-24T04:25:53;5.80;99.90
3752;DHT22;50827;47.014;7.652;2023-02-24T04:28:24;5.60;99.90
3752;DHT22;50827;47.014;7.652;2023-02-24T04:30:56;5.50;99.90
3752;DHT22;50827;47.014;7.652;2023-02-24T04:33:24;5.50;99.90
3752;DHT22;50827;47.014;7.652;2023-02-24T04:35:51;5.50;99.90
3752;DHT22;50827;47.014;7.652;2023-02-24T04:38:19;5.50;99.90
3752;DHT22;50827;47.014;7.652;2023-02-24T04:40:45;5.50;99.90
3752;DHT22;50827;47.014;7.652;2023-02-24T04:43:15;5.50;99.90
3752;DHT22;50827;47.014;7.652;2023-02-24T04:45:43;5.50;99.90
3752;DHT22;50827;47.014;7.652;2023-02-24T04:48:09;5.50;99.90
3752;DHT22;50827;47.014;7.652;2023-02-24T04:50:40;5.50;99.90
3752;DHT22;50827;47.014;7.652;2023-02-24T04:53:13;5.50;99.90
3752;DHT22;50827;47.014;7.652;2023-02-24T04:55:46;5.60;99.90
3752;DHT22;50827;47.014;7.652;2023-02-24T04:58:19;5.60;99.90
3752;DHT22;50827;47.014;7.652;2023-02-24T05:00:48;5.50;99.90
3752;DHT22;50827;47.014;7.652;2023-02-24T05:03:19;5.50;99.90
3752;DHT22;50827;47.014;7.652;2023-02-24T05:05:51;5.50;99.90
3752;DHT22;50827;47.014;7.652;2023-02-24T05:08:18;5.50;99.90
3752;DHT22;50827;47.014;7.652;2023-02-24T05:10:45;5.50;99.90
3752;DHT22;50827;47.014;7.652;2023-02-24T05:13:18;5.50;99.90
3752;DHT22;50827;47.014;7.652;2023-02-24T05:15:46;5.50;99.90
3752;DHT22;50827;47.014;7.652;2023-02-24T05:18:14;5.50;99.90
3752;DHT22;50827;47.014;7.652;2023-02-24T05:20:44;5.50;99.90
3752;DHT22;50827;47.014;7.652;2023-02-24T05:23:35;5.50;99.90
3752;DHT22;50827;47.014;7.652;2023-02-24T05:26:06;5.50;99.90
3752;DHT22;50827;47.014;7.652;2023-02-24T05:28:36;5.50;99.90
3752;DHT22;50827;47.014;7.652;2023-02-24T05:31:06;5.50;99.90
3752;DHT22;50827;47.014;7.652;2023-02-24T05:33:35;5.50;99.90
3752;DHT22;50827;47.014;7.652;2023-02-24T05:36:05;5.50;99.90
3752;DHT22;50827;47.014;7.652;2023-02-24T05:38:35;5.60;99.90
3752;DHT22;50827;47.014;7.652;2023-02-24T05:41:17;5.60;99.90
3752;DHT22;50827;47.014;7.652;2023-02-24T05:43:48;5.60;99.90
3752;DHT22;50827;47.014;7.652;2023-02-24T05:46:23;5.60;99.90
3752;DHT22;50827;47.014;7.652;2023-02-24T05:48:59;5.60;99.90
3752;DHT22;50827;47.014;7.652;2023-02-24T05:51:28;5.60;99.90
3752;DHT22;50827;47.014;7.652;2023-02-24T05:54:05;5.60;99.90
3752;DHT22;50827;47.014;7.652;2023-02-24T05:56:34;5.70;99.90
3752;DHT22;50827;47.014;7.652;2023-02-24T05:59:03;5.70;99.90
3752;DHT22;50827;47.014;7.652;2023-02-24T06:01:32;5.60;99.90
3752;DHT22;50827;47.014;7.652;2023-02-24T06:04:03;5.60;99.90
3752;DHT22;50827;47.014;7.652;2023-02-24T06:06:37;5.60;99.90
3752;DHT22;50827;47.014;7.652;2023-02-24T06:09:06;5.60;99.90
3752;DHT22;50827;47.014;7.652;2023-02-24T06:11:36;5.60;99.90
3752;DHT22;50827;47.014;7.652;2023-02-24T06:14:03;5.60;99.90
3752;DHT22;50827;47.014;7.652;2023-02-24T06:16:34;5.60;99.90
3752;DHT22;50827;47.014;7.652;2023-02-24T06:19:01;5.50;99.90
3752;DHT22;50827;47.014;7.652;2023-02-24T06:21:28;5.50;99.90
3752;DHT22;50827;47.014;7.652;2023-02-24T06:23:56;5.50;99.90
3752;DHT22;50827;47.014;7.652;2023-02-24T06:26:24;5.50;99.90
3752;DHT22;50827;47.014;7.652;2023-02-24T06:28:59;5.50;99.90
3752;DHT22;50827;47.014;7.652;2023-02-24T06:31:26;5.60;99.90
3752;DHT22;50827;47.014;7.652;2023-02-24T06:33:53;5.50;99.90
3752;DHT22;50827;47.014;7.652;2023-02-24T06:36:21;5.50;99.90
3752;DHT22;50827;47.014;7.652;2023-02-24T06:38:48;5.40;99.90
3752;DHT22;50827;47.014;7.652;2023-02-24T06:41:15;5.50;99.90
3752;DHT22;50827;47.014;7.652;2023-02-24T06:43:43;5.40;99.90
3752;DHT22;50827;47.014;7.652;2023-02-24T06:46:12;5.40;99.90
3752;DHT22;50827;47.014;7.652;2023-02-24T06:48:41;5.40;99.90
3752;DHT22;50827;47.014;7.652;2023-02-24T06:51:13;5.50;99.90
3752;DHT22;50827;47.014;7.652;2023-02-24T06:53:42;5.50;99.90
3752;DHT22;50827;47.014;7.652;2023-02-24T06:56:15;5.40;99.90
3752;DHT22;50827;47.014;7.652;2023-02-24T06:58:46;5.50;99.90
3752;DHT22;50827;47.014;7.652;2023-02-24T07:01:16;5.60;99.90
3752;DHT22;50827;47.014;7.652;2023-02-24T07:03:44;5.70;99.90
3752;DHT22;50827;47.014;7.652;2023-02-24T07:06:32;5.70;99.90
3752;DHT22;50827;47.014;7.652;2023-02-24T07:09:06;5.70;99.90
3752;DHT22;50827;47.014;7.652;2023-02-24T07:11:34;5.70;99.90
3752;DHT22;50827;47.014;7.652;2023-02-24T07:14:01;5.60;99.90
3752;DHT22;50827;47.014;7.652;2023-02-24T07:16:31;5.60;99.90
3752;DHT22;50827;47.014;7.652;2023-02-24T07:19:02;5.50;99.90
3752;DHT22;50827;47.014;7.652;2023-02-24T07:21:30;5.50;99.90
3752;DHT22;50827;47.014;7.652;2023-02-24T07:24:05;5.60;99.90
3752;DHT22;50827;47.014;7.652;2023-02-24T07:26:32;5.60;99.90
3752;DHT22;50827;47.014;7.652;2023-02-24T07:28:59;5.60;99.90
3752;DHT22;50827;47.014;7.652;2023-02-24T07:31:30;5.60;99.90
3752;DHT22;50827;47.014;7.652;2023-02-24T07:34:01;5.60;99.90
3752;DHT22;50827;47.014;7.652;2023-02-24T07:36:29;5.70;99.90
3752;DHT22;50827;47.014;7.652;2023-02-24T07:38:57;5.70;99.90
3752;DHT22;50827;47.014;7.652;2023-02-24T07:41:25;5.80;99.90
3752;DHT22;50827;47.014;7.652;2023-02-24T07:43:53;5.80;99.90
3752;DHT22;50827;47.014;7.652;2023-02-24T07:46:25;5.80;99.90
3752;DHT22;50827;47.014;7.652;2023-02-24T07:48:55;5.90;99.90
3752;DHT22;50827;47.014;7.652;2023-02-24T07:51:25;6.00;99.90
3752;DHT22;50827;47.014;7.652;2023-02-24T07:53:57;6.50;99.90
3752;DHT22;50827;47.014;7.652;2023-02-24T07:56:29;6.40;99.90
3752;DHT22;50827;47.014;7.652;2023-02-24T07:59:01;6.30;99.90
3752;DHT22;50827;47.014;7.652;2023-02-24T08:01:32;6.20;99.90
3752;DHT22;50827;47.014;7.652;2023-02-24T08:04:06;6.20;99.90
3752;DHT22;50827;47.014;7.652;2023-02-24T08:06:40;6.30;99.90
3752;DHT22;50827;47.014;7.652;2023-02-24T08:09:14;6.30;99.90
3752;DHT22;50827;47.014;7.652;2023-02-24T08:11:50;6.40;99.90
3752;DHT22;50827;47.014;7.652;2023-02-24T08:14:19;6.40;99.90
3752;DHT22;50827;47.014;7.652;2023-02-24T08:16:48;6.50;99.90
3752;DHT22;50827;47.014;7.652;2023-02-24T08:19:17;6.60;99.90
3752;DHT22;50827;47.014;7.652;2023-02-24T08:21:52;6.60;99.90
3752;DHT22;50827;47.014;7.652;2023-02-24T08:24:22;6.70;99.90
3752;DHT22;50827;47.014;7.652;2023-02-24T08:26:53;6.70;99.90
3752;DHT22;50827;47.014;7.652;2023-02-24T08:32:06;6.80;99.90
3752;DHT22;50827;47.014;7.652;2023-02-24T08:34:35;6.90;99.90
3752;DHT22;50827;47.014;7.652;2023-02-24T08:37:02;6.90;99.90
3752;DHT22;50827;47.014;7.652;2023-02-24T08:39:29;6.90;99.90
3752;DHT22;50827;47.014;7.652;2023-02-24T08:41:59;7.00;99.90
3752;DHT22;50827;47.014;7.652;2023-02-24T08:44:26;7.10;99.90
3752;DHT22;50827;47.014;7.652;2023-02-24T08:46:54;7.10;99.90
3752;DHT22;50827;47.014;7.652;2023-02-24T08:49:22;7.20;99.90
3752;DHT22;50827;47.014;7.652;2023-02-24T08:51:53;7.20;99.90
3752;DHT22;50827;47.014;7.652;2023-02-24T08:54:22;7.30;99.90
3752;DHT22;50827;47.014;7.652;2023-02-24T08:56:58;7.40;99.90
3752;DHT22;50827;47.014;7.652;2023-02-24T08:59:35;7.40;99.90
3752;DHT22;50827;47.014;7.652;2023-02-24T09:02:14;7.50;99.90
3752;DHT22;50827;47.014;7.652;2023-02-24T09:04:46;7.60;99.90
3752;DHT22;50827;47.014;7.652;2023-02-24T09:09:52;7.70;99.90
3752;DHT22;50827;47.014;7.652;2023-02-24T09:12:24;7.70;99.90
3752;DHT22;50827;47.014;7.652;2023-02-24T09:14:58;7.80;99.90
3752;DHT22;50827;47.014;7.652;2023-02-24T09:17:28;7.80;99.90
3752;DHT22;50827;47.014;7.652;2023-02-24T09:20:21;7.90;99.90
3752;DHT22;50827;47.014;7.652;2023-02-24T09:22:58;8.00;99.90
3752;DHT22;50827;47.014;7.652;2023-02-24T09:25:36;8.00;99.90
3752;DHT22;50827;47.014;7.652;2023-02-24T09:28:07;8.00;99.90
3752;DHT22;50827;47.014;7.652;2023-02-24T09:30:38;8.10;99.90
3752;DHT22;50827;47.014;7.652;2023-02-24T09:33:25;8.20;99.90
3752;DHT22;50827;47.014;7.652;2023-02-24T09:35:59;8.20;99.90
3752;DHT22;50827;47.014;7.652;2023-02-24T09:41:26;8.40;99.90
3752;DHT22;50827;47.014;7.652;2023-02-24T09:44:34;8.50;99.90
3752;DHT22;50827;47.014;7.652;2023-02-24T09:49:52;8.60;99.90
3752;DHT22;50827;47.014;7.652;2023-02-24T09:52:26;8.70;99.90
3752;DHT22;50827;47.014;7.652;2023-02-24T10:01:21;8.90;99.90
3752;DHT22;50827;47.014;7.652;2023-02-24T10:06:47;9.00;99.90
3752;DHT22;50827;47.014;7.652;2023-02-24T10:11:58;9.20;99.90
3752;DHT22;50827;47.014;7.652;2023-02-24T10:15:02;9.20;99.90
3752;DHT22;50827;47.014;7.652;2023-02-24T10:17:51;9.30;99.90
3752;DHT22;50827;47.014;7.652;2023-02-24T10:20:25;9.40;99.90
3752;DHT22;50827;47.014;7.652;2023-02-24T10:23:27;9.40;99.90
3752;DHT22;50827;47.014;7.652;2023-02-24T10:26:09;9.50;99.90
3752;DHT22;50827;47.014;7.652;2023-02-24T10:28:52;9.50;99.90
3752;DHT22;50827;47.014;7.652;2023-02-24T10:31:33;9.60;99.90
3752;DHT22;50827;47.014;7.652;2023-02-24T10:34:12;9.70;99.90
3752;DHT22;50827;47.014;7.652;2023-02-24T10:36:45;9.70;99.90
3752;DHT22;50827;47.014;7.652;2023-02-24T10:39:20;9.90;99.90
3752;DHT22;50827;47.014;7.652;2023-02-24T10:41:56;9.90;99.90
3752;DHT22;50827;47.014;7.652;2023-02-24T10:44:26;10.00;99.90
3752;DHT22;50827;47.014;7.652;2023-02-24T10:47:05;10.10;99.90
3752;DHT22;50827;47.014;7.652;2023-02-24T10:49:48;10.20;99.90
3752;DHT22;50827;47.014;7.652;2023-02-24T10:52:33;10.30;99.90
3752;DHT22;50827;47.014;7.652;2023-02-24T10:55:44;10.40;99.90
3752;DHT22;50827;47.014;7.652;2023-02-24T10:58:15;10.50;99.90
3752;DHT22;50827;47.014;7.652;2023-02-24T11:01:03;10.60;99.90
3752;DHT22;50827;47.014;7.652;2023-02-24T11:03:49;10.60;99.90
3752;DHT22;50827;47.014;7.652;2023-02-24T11:06:30;10.70;99.90
3752;DHT22;50827;47.014;7.652;2023-02-24T11:11:58;10.90;99.90
3752;DHT22;50827;47.014;7.652;2023-02-24T11:14:51;11.00;99.90
3752;DHT22;50827;47.014;7.652;2023-02-24T11:17:52;11.00;99.90
3752;DHT22;50827;47.014;7.652;2023-02-24T11:20:32;11.10;99.90
3752;DHT22;50827;47.014;7.652;2023-02-24T11:23:21;11.20;99.90
3752;DHT22;50827;47.014;7.652;2023-02-24T11:25:52;11.20;99.90
3752;DHT22;50827;47.014;7.652;2023-02-24T11:28:37;11.20;99.90
3752;DHT22;50827;47.014;7.652;2023-02-24T11:31:21;11.30;99.90
3752;DHT22;50827;47.014;7.652;2023-02-24T11:42:00;11.60;99.90
3752;DHT22;50827;47.014;7.652;2023-02-24T11:44:33;11.70;99.90
3752;DHT22;50827;47.014;7.652;2023-02-24T11:47:05;11.70;99.90
3752;DHT22;50827;47.014;7.652;2023-02-24T11:49:44;11.80;99.90
3752;DHT22;50827;47.014;7.652;2023-02-24T11:52:17;11.90;99.90
3752;DHT22;50827;47.014;7.652;2023-02-24T11:54:51;11.90;99.90
3752;DHT22;50827;47.014;7.652;2023-02-24T11:57:29;12.00;99.90
3752;DHT22;50827;47.014;7.652;2023-02-24T12:00:10;12.00;99.90
3752;DHT22;50827;47.014;7.652;2023-02-24T12:02:47;12.00;99.90
3752;DHT22;50827;47.014;7.652;2023-02-24T12:05:22;12.10;99.90
3752;DHT22;50827;47.014;7.652;2023-02-24T12:08:00;12.10;99.90
3752;DHT22;50827;47.014;7.652;2023-02-24T12:10:35;12.20;99.90
3752;DHT22;50827;47.014;7.652;2023-02-24T12:18:37;12.30;99.90
3752;DHT22;50827;47.014;7.652;2023-02-24T12:21:28;12.40;99.90
3752;DHT22;50827;47.014;7.652;2023-02-24T12:23:57;12.50;99.90
3752;DHT22;50827;47.014;7.652;2023-02-24T12:26:34;12.50;99.90
3752;DHT22;50827;47.014;7.652;2023-02-24T12:32:20;12.60;99.90
3752;DHT22;50827;47.014;7.652;2023-02-24T12:37:42;12.70;99.90
3752;DHT22;50827;47.014;7.652;2023-02-24T12:40:39;12.70;99.90
3752;DHT22;50827;47.014;7.652;2023-02-24T12:43:37;12.80;99.90
3752;DHT22;50827;47.014;7.652;2023-02-24T12:46:34;12.90;99.90
3752;DHT22;50827;47.014;7.652;2023-02-24T12:49:43;12.90;99.90
3752;DHT22;50827;47.014;7.652;2023-02-24T12:52:24;12.90;99.90
3752;DHT22;50827;47.014;7.652;2023-02-24T12:55:07;12.90;99.90
3752;DHT22;50827;47.014;7.652;2023-02-24T12:57:54;13.00;99.90
3752;DHT22;50827;47.014;7.652;2023-02-24T13:00:42;13.00;99.90
3752;DHT22;50827;47.014;7.652;2023-02-24T13:15:04;13.20;99.90
3752;DHT22;50827;47.014;7.652;2023-02-24T13:17:31;13.20;99.90
3752;DHT22;50827;47.014;7.652;2023-02-24T13:20:09;13.30;99.90
3752;DHT22;50827;47.014;7.652;2023-02-24T13:22:40;13.30;99.90
3752;DHT22;50827;47.014;7.652;2023-02-24T13:27:40;13.30;99.90
3752;DHT22;50827;47.014;7.652;2023-02-24T13:32:46;13.40;99.90
3752;DHT22;50827;47.014;7.652;2023-02-24T13:37:45;13.50;99.90
3752;DHT22;50827;47.014;7.652;2023-02-24T13:45:27;13.60;99.90
3752;DHT22;50827;47.014;7.652;2023-02-24T13:53:39;13.60;99.90
3752;DHT22;50827;47.014;7.652;2023-02-24T13:59:45;13.60;99.90
3752;DHT22;50827;47.014;7.652;2023-02-24T14:02:36;13.70;99.90
3752;DHT22;50827;47.014;7.652;2023-02-24T14:05:10;13.70;99.90
3752;DHT22;50827;47.014;7.652;2023-02-24T14:07:42;13.70;99.90
3752;DHT22;50827;47.014;7.652;2023-02-24T14:10:20;13.70;99.90
3752;DHT22;50827;47.014;7.652;2023-02-24T14:13:06;13.80;99.90
3752;DHT22;50827;47.014;7.652;2023-02-24T14:15:33;13.80;99.90
3752;DHT22;50827;47.014;7.652;2023-02-24T14:18:04;13.80;99.90
3752;DHT22;50827;47.014;7.652;2023-02-24T14:20:33;13.80;99.90
3752;DHT22;50827;47.014;7.652;2023-02-24T14:23:00;13.80;99.90
3752;DHT22;50827;47.014;7.652;2023-02-24T14:25:35;13.80;99.90
3752;DHT22;50827;47.014;7.652;2023-02-24T14:28:03;13.90;99.90
3752;DHT22;50827;47.014;7.652;2023-02-24T14:30:38;13.90;99.90
3752;DHT22;50827;47.014;7.652;2023-02-24T14:33:06;13.90;99.90
3752;DHT22;50827;47.014;7.652;2023-02-24T14:35:36;13.90;99.90
3752;DHT22;50827;47.014;7.652;2023-02-24T14:38:04;14.00;99.90
3752;DHT22;50827;47.014;7.652;2023-02-24T14:40:31;14.00;99.90
3752;DHT22;50827;47.014;7.652;2023-02-24T14:42:59;14.00;99.90
3752;DHT22;50827;47.014;7.652;2023-02-24T14:45:27;14.00;99.90
3752;DHT22;50827;47.014;7.652;2023-02-24T14:47:54;13.90;99.90
3752;DHT22;50827;47.014;7.652;2023-02-24T14:50:31;14.00;99.90
3752;DHT22;50827;47.014;7.652;2023-02-24T14:53:05;14.00;99.90
3752;DHT22;50827;47.014;7.652;2023-02-24T14:55:37;14.00;99.90
3752;DHT22;50827;47.014;7.652;2023-02-24T14:58:12;14.00;99.90
3752;DHT22;50827;47.014;7.652;2023-02-24T15:00:46;14.00;99.90
3752;DHT22;50827;47.014;7.652;2023-02-24T15:03:23;13.90;99.90
3752;DHT22;50827;47.014;7.652;2023-02-24T15:05:53;13.90;99.90
3752;DHT22;50827;47.014;7.652;2023-02-24T15:08:30;13.90;99.90
3752;DHT22;50827;47.014;7.652;2023-02-24T15:10:59;13.80;99.90
3752;DHT22;50827;47.014;7.652;2023-02-24T15:13:43;13.80;99.90
3752;DHT22;50827;47.014;7.652;2023-02-24T15:16:40;13.90;99.90
3752;DHT22;50827;47.014;7.652;2023-02-24T15:19:29;14.00;99.90
3752;DHT22;50827;47.014;7.652;2023-02-24T15:21:57;14.10;99.90
3752;DHT22;50827;47.014;7.652;2023-02-24T15:24:26;13.90;99.90
3752;DHT22;50827;47.014;7.652;2023-02-24T15:26:57;13.80;99.90
3752;DHT22;50827;47.014;7.652;2023-02-24T15:29:27;13.70;99.90
3752;DHT22;50827;47.014;7.652;2023-02-24T15:31:55;13.70;99.90
3752;DHT22;50827;47.014;7.652;2023-02-24T15:34:31;13.70;99.90
3752;DHT22;50827;47.014;7.652;2023-02-24T15:37:02;13.60;99.90
3752;DHT22;50827;47.014;7.652;2023-02-24T15:39:31;13.60;99.90
3752;DHT22;50827;47.014;7.652;2023-02-24T15:49:49;13.50;99.90
3752;DHT22;50827;47.014;7.652;2023-02-24T15:52:22;13.50;99.90
3752;DHT22;50827;47.014;7.652;2023-02-24T15:54:50;13.40;99.90
3752;DHT22;50827;47.014;7.652;2023-02-24T15:57:17;13.50;99.90
3752;DHT22;50827;47.014;7.652;2023-02-24T15:59:46;13.50;99.90
3752;DHT22;50827;47.014;7.652;2023-02-24T16:02:15;13.50;99.90
3752;DHT22;50827;47.014;7.652;2023-02-24T16:04:44;13.50;99.90
3752;DHT22;50827;47.014;7.652;2023-02-24T16:07:18;13.60;99.90
3752;DHT22;50827;47.014;7.652;2023-02-24T16:09:46;13.50;99.90
3752;DHT22;50827;47.014;7.652;2023-02-24T16:12:21;13.50;99.90
3752;DHT22;50827;47.014;7.652;2023-02-24T16:14:49;13.40;99.90
3752;DHT22;50827;47.014;7.652;2023-02-24T16:17:33;13.40;99.90
3752;DHT22;50827;47.014;7.652;2023-02-24T16:20:01;13.40;99.90
3752;DHT22;50827;47.014;7.652;2023-02-24T16:22:28;13.40;99.90
3752;DHT22;50827;47.014;7.652;2023-02-24T16:24:54;13.30;99.90
3752;DHT22;50827;47.014;7.652;2023-02-24T16:27:22;13.40;99.90
3752;DHT22;50827;47.014;7.652;2023-02-24T16:29:51;13.30;99.90
3752;DHT22;50827;47.014;7.652;2023-02-24T16:32:18;13.40;99.90
3752;DHT22;50827;47.014;7.652;2023-02-24T16:34:51;13.40;99.90
3752;DHT22;50827;47.014;7.652;2023-02-24T16:37:25;13.40;99.90
3752;DHT22;50827;47.014;7.652;2023-02-24T16:39:52;13.30;99.90
3752;DHT22;50827;47.014;7.652;2023-02-24T16:42:19;13.30;99.90
3752;DHT22;50827;47.014;7.652;2023-02-24T16:44:47;13.20;99.90
3752;DHT22;50827;47.014;7.652;2023-02-24T16:47:18;13.20;99.90
3752;DHT22;50827;47.014;7.652;2023-02-24T16:49:46;13.20;99.90
3752;DHT22;50827;47.014;7.652;2023-02-24T16:52:13;13.10;99.90
3752;DHT22;50827;47.014;7.652;2023-02-24T16:54:45;13.10;99.90
3752;DHT22;50827;47.014;7.652;2023-02-24T16:57:11;13.00;99.90
3752;DHT22;50827;47.014;7.652;2023-02-24T16:59:38;13.00;99.90
3752;DHT22;50827;47.014;7.652;2023-02-24T17:02:05;13.00;99.90
3752;DHT22;50827;47.014;7.652;2023-02-24T17:04:32;13.00;99.90
3752;DHT22;50827;47.014;7.652;2023-02-24T17:06:58;12.90;99.90
3752;DHT22;50827;47.014;7.652;2023-02-24T17:09:25;12.90;99.90
3752;DHT22;50827;47.014;7.652;2023-02-24T17:11:54;12.80;99.90
3752;DHT22;50827;47.014;7.652;2023-02-24T17:14:21;12.80;99.90
3752;DHT22;50827;47.014;7.652;2023-02-24T17:16:48;12.90;99.90
3752;DHT22;50827;47.014;7.652;2023-02-24T17:19:15;12.80;99.90
3752;DHT22;50827;47.014;7.652;2023-02-24T17:21:42;12.80;99.90
3752;DHT22;50827;47.014;7.652;2023-02-24T17:24:18;12.80;99.90
3752;DHT22;50827;47.014;7.652;2023-02-24T17:26:45;12.70;99.90
3752;DHT22;50827;47.014;7.652;2023-02-24T17:29:12;12.70;99.90
3752;DHT22;50827;47.014;7.652;2023-02-24T17:31:40;12.70;99.90
3752;DHT22;50827;47.014;7.652;2023-02-24T17:34:08;12.70;99.90
3752;DHT22;50827;47.014;7.652;2023-02-24T17:36:35;12.60;99.90
3752;DHT22;50827;47.014;7.652;2023-02-24T17:39:02;12.70;99.90
3752;DHT22;50827;47.014;7.652;2023-02-24T17:41:28;12.60;99.90
3752;DHT22;50827;47.014;7.652;2023-02-24T17:43:55;12.50;99.90
3752;DHT22;50827;47.014;7.652;2023-02-24T17:46:22;12.40;99.90
3752;DHT22;50827;47.014;7.652;2023-02-24T17:48:49;12.40;99.90
3752;DHT22;50827;47.014;7.652;2023-02-24T17:51:18;12.30;99.90
3752;DHT22;50827;47.014;7.652;2023-02-24T17:53:45;12.30;99.90
3752;DHT22;50827;47.014;7.652;2023-02-24T17:56:12;12.20;99.90
3752;DHT22;50827;47.014;7.652;2023-02-24T17:58:39;12.20;99.90
3752;DHT22;50827;47.014;7.652;2023-02-24T18:01:06;12.10;99.90
3752;DHT22;50827;47.014;7.652;2023-02-24T18:03:34;12.10;99.90
3752;DHT22;50827;47.014;7.652;2023-02-24T18:06:10;12.10;99.90
3752;DHT22;50827;47.014;7.652;2023-02-24T18:08:37;12.10;99.90
3752;DHT22;50827;47.014;7.652;2023-02-24T18:11:05;12.00;99.90
3752;DHT22;50827;47.014;7.652;2023-02-24T18:13:32;12.00;99.90
3752;DHT22;50827;47.014;7.652;2023-02-24T18:15:59;12.00;99.90
3752;DHT22;50827;47.014;7.652;2023-02-24T18:18:26;12.00;99.90
3752;DHT22;50827;47.014;7.652;2023-02-24T18:20:53;12.00;99.90
3752;DHT22;50827;47.014;7.652;2023-02-24T18:23:24;11.90;99.90
3752;DHT22;50827;47.014;7.652;2023-02-24T18:25:50;12.00;99.90
3752;DHT22;50827;47.014;7.652;2023-02-24T18:28:17;11.90;99.90